Time;durP1;ratioP1;P1;durP2;ratioP2;P2;SDS_P1;SDS_P2;PMS_P1;PMS_P2;Temp;Humidity;BMP_temperature;BMP_pressure;BME280_temperature;BME280_humidity;BME280_pressure;Samples;Min_cycle;Max_cycle;Signal;HPM_P1;HPM_P2
2023/04/27 00:01:53;;;;;;;;;11.00;9.33;;;;;14.98;100.00;101471.69;5019853;28;55811;-73
2023/04/27 00:04:19;;;;;;;;;10.67;8.33;;;;;14.98;100.00;101471.69;5038090;28;45252;-72
2023/04/27 00:06:44;;;;;;;;;12.00;9.00;;;;;15.01;100.00;101478.75;5037811;28;45404;-72
2023/04/27 00:09:10;;;;;;;;;15.00;9.33;;;;;15.01;100.00;101482.31;5013925;28;45544;-73
2023/04/27 00:11:36;;;;;;;;;11.00;9.67;;;;;15.00;100.00;101477.00;5032718;28;45968;-73
2023/04/27 00:14:01;;;;;;;;;8.67;8.67;;;;;14.99;100.00;101478.75;5039007;28;55031;-73
2023/04/27 00:16:27;;;;;;;;;13.33;10.00;;;;;14.98;100.00;101469.00;5037656;28;45341;-73
2023/04/27 00:18:52;;;;;;;;;13.00;9.00;;;;;14.97;100.00;101469.91;5016339;28;45516;-73
2023/04/27 00:21:18;;;;;;;;;9.67;9.67;;;;;14.96;100.00;101467.22;5003470;28;48027;-73
2023/04/27 00:23:43;;;;;;;;;10.67;9.00;;;;;14.97;100.00;101466.31;5002268;28;46411;-73
2023/04/27 00:26:09;;;;;;;;;14.00;11.00;;;;;14.97;100.00;101461.00;5032521;28;45523;-73
2023/04/27 00:28:34;;;;;;;;;13.67;13.67;;;;;14.97;100.00;101461.00;5036954;28;45460;-73
2023/04/27 00:31:02;;;;;;;;;14.00;10.33;;;;;14.96;100.00;101459.25;5019532;28;46191;-73
2023/04/27 00:33:27;;;;;;;;;13.00;11.67;;;;;14.91;100.00;101454.81;5037660;28;45416;-73
2023/04/27 00:35:53;;;;;;;;;17.00;13.67;;;;;14.89;100.00;101459.22;5036315;28;45333;-73
2023/04/27 00:38:18;;;;;;;;;12.67;11.33;;;;;14.88;100.00;101451.25;5036526;28;55740;-73
2023/04/27 00:40:43;;;;;;;;;12.00;12.00;;;;;14.89;100.00;101456.56;5021855;28;48328;-73
2023/04/27 00:43:09;;;;;;;;;17.33;12.00;;;;;14.88;100.00;101445.94;5036489;28;63870;-72
2023/04/27 00:45:40;;;;;;;;;13.00;10.67;;;;;14.91;100.00;101443.25;5018317;28;45554;-73
2023/04/27 00:48:06;;;;;;;;;15.33;14.67;;;;;14.93;100.00;101444.19;5019679;28;45298;-73
2023/04/27 00:50:31;;;;;;;;;15.33;15.00;;;;;14.89;100.00;101437.94;5017615;28;49661;-73
2023/04/27 00:52:56;;;;;;;;;22.00;15.00;;;;;14.90;100.00;101442.38;5019043;28;59124;-72
2023/04/27 00:55:22;;;;;;;;;13.00;13.00;;;;;14.87;100.00;101433.53;5036880;28;47044;-73
2023/04/27 00:57:48;;;;;;;;;11.67;11.67;;;;;14.88;100.00;101438.84;5019899;28;45390;-73
2023/04/27 01:00:14;;;;;;;;;17.33;14.00;;;;;14.90;100.00;101442.38;5036734;28;49826;-73
2023/04/27 01:02:40;;;;;;;;;11.33;10.33;;;;;14.88;100.00;101437.97;5036873;28;45577;-73
2023/04/27 01:05:07;;;;;;;;;9.33;9.33;;;;;14.88;100.00;101443.28;5037013;28;45431;-73
2023/04/27 01:07:33;;;;;;;;;11.33;10.33;;;;;14.86;100.00;101442.38;5036599;28;45337;-73
2023/04/27 01:09:58;;;;;;;;;11.33;11.33;;;;;14.83;100.00;101439.72;5018739;28;46604;-73
2023/04/27 01:12:24;;;;;;;;;12.33;11.33;;;;;14.84;100.00;101441.47;5016787;28;45519;-73
2023/04/27 01:14:49;;;;;;;;;8.00;7.33;;;;;14.84;100.00;101441.47;5017622;28;45561;-73
2023/04/27 01:17:15;;;;;;;;;11.67;9.00;;;;;14.81;100.00;101442.38;5036940;28;45507;-73
2023/04/27 01:19:41;;;;;;;;;14.67;12.33;;;;;14.80;100.00;101437.03;5037030;28;46434;-74
2023/04/27 01:22:06;;;;;;;;;12.67;10.00;;;;;14.80;100.00;101437.91;5034135;28;45366;-73
2023/04/27 01:24:31;;;;;;;;;11.00;7.00;;;;;14.79;100.00;101443.25;5013951;28;45408;-73
2023/04/27 01:26:57;;;;;;;;;12.00;10.33;;;;;14.79;100.00;101445.91;5033249;28;58547;-73
2023/04/27 01:29:22;;;;;;;;;12.67;11.67;;;;;14.76;100.00;101444.13;5037088;28;45865;-74
2023/04/27 01:31:48;;;;;;;;;13.00;8.67;;;;;14.76;100.00;101456.53;5036499;28;45404;-73
2023/04/27 01:36:48;;;;;;;;;20.00;11.67;;;;;14.72;100.00;101447.66;1416958;26;46088;-73
2023/04/27 01:39:14;;;;;;;;;10.00;8.00;;;;;14.72;100.00;101447.66;5033420;28;46623;-73
2023/04/27 01:41:39;;;;;;;;;10.67;9.00;;;;;14.75;100.00;101444.09;5017052;28;45425;-73
2023/04/27 01:44:05;;;;;;;;;12.33;10.00;;;;;14.73;100.00;101430.81;5001721;28;45482;-73
2023/04/27 01:46:31;;;;;;;;;14.00;8.33;;;;;14.71;100.00;101434.38;5018771;28;45261;-74
2023/04/27 01:48:56;;;;;;;;;12.67;8.00;;;;;14.72;100.00;101436.13;5035667;28;65708;-74
2023/04/27 01:51:21;;;;;;;;;12.67;9.00;;;;;14.69;100.00;101437.00;5017852;28;45527;-73
2023/04/27 01:53:47;;;;;;;;;11.67;8.00;;;;;14.67;100.00;101426.38;5021791;28;45550;-72
2023/04/27 01:56:12;;;;;;;;;14.00;10.00;;;;;14.68;100.00;101422.81;5035811;28;58397;-73
2023/04/27 01:58:37;;;;;;;;;9.33;9.33;;;;;14.67;100.00;101412.19;5017894;28;69984;-73
2023/04/27 02:01:03;;;;;;;;;11.67;7.00;;;;;14.63;100.00;101413.06;5018176;28;45359;-73
2023/04/27 02:03:28;;;;;;;;;10.33;8.67;;;;;14.63;100.00;101410.41;5035568;28;53884;-73
2023/04/27 02:05:54;;;;;;;;;14.00;9.00;;;;;14.63;100.00;101423.69;5036138;28;55097;-73
2023/04/27 02:08:19;;;;;;;;;11.67;7.67;;;;;14.63;100.00;101423.69;5035757;28;46426;-73
2023/04/27 02:10:44;;;;;;;;;9.33;8.00;;;;;14.62;100.00;101420.13;5035969;28;45288;-73
2023/04/27 02:13:10;;;;;;;;;11.33;9.00;;;;;14.60;100.00;101421.91;5035721;28;45528;-73
2023/04/27 02:15:35;;;;;;;;;9.00;8.00;;;;;14.58;100.00;101418.34;5035994;28;45550;-73
2023/04/27 02:18:02;;;;;;;;;9.67;7.67;;;;;14.57;100.00;101421.88;5015920;28;46079;-73
2023/04/27 02:20:29;;;;;;;;;8.67;8.67;;;;;14.57;100.00;101423.66;5010606;28;45364;-72
2023/04/27 02:22:54;;;;;;;;;11.33;9.00;;;;;14.56;100.00;101419.25;5035485;28;45336;-72
2023/04/27 02:25:20;;;;;;;;;12.67;7.67;;;;;14.57;100.00;101418.34;5035422;28;50793;-72
2023/04/27 02:27:45;;;;;;;;;7.00;7.00;;;;;14.55;100.00;101421.00;5035219;28;60485;-72
2023/04/27 02:30:11;;;;;;;;;8.00;8.00;;;;;14.53;100.00;101425.41;5035565;28;45444;-72
2023/04/27 02:32:36;;;;;;;;;9.33;8.33;;;;;14.53;100.00;101427.19;5035526;28;45560;-71
2023/04/27 02:35:03;;;;;;;;;10.67;8.33;;;;;14.49;100.00;101426.31;5035889;28;45716;-72
2023/04/27 02:37:28;;;;;;;;;9.67;7.67;;;;;14.49;100.00;101425.38;5035193;28;46664;-72
2023/04/27 02:39:54;;;;;;;;;13.00;9.33;;;;;14.50;100.00;101429.84;5039182;28;45317;-72
2023/04/27 02:42:19;;;;;;;;;11.33;9.00;;;;;14.49;100.00;101428.97;5017450;28;45317;-72
2023/04/27 02:44:45;;;;;;;;;9.00;9.00;;;;;14.48;100.00;101432.47;5035811;28;45380;-72
2023/04/27 02:47:11;;;;;;;;;14.33;12.00;;;;;14.46;100.00;101430.66;5035163;28;46091;-72
2023/04/27 02:49:36;;;;;;;;;11.00;9.67;;;;;14.44;100.00;101425.38;5017340;28;45417;-74
2023/04/27 02:52:02;;;;;;;;;12.33;12.33;;;;;14.45;100.00;101429.78;5035432;28;45377;-72
2023/04/27 02:54:27;;;;;;;;;12.00;12.00;;;;;14.44;100.00;101429.78;5033924;28;45559;-74
2023/04/27 02:56:53;;;;;;;;;17.67;14.33;;;;;14.44;100.00;101440.41;5017174;28;46128;-73
2023/04/27 02:59:18;;;;;;;;;14.33;13.00;;;;;14.42;100.00;101443.94;5035952;28;45419;-74
2023/04/27 03:01:43;;;;;;;;;15.33;14.00;;;;;14.40;100.00;101440.38;5038344;28;51486;-73
2023/04/27 03:04:09;;;;;;;;;17.00;14.00;;;;;14.39;100.00;101437.72;5037865;28;61624;-74
2023/04/27 03:06:34;;;;;;;;;17.00;15.33;;;;;14.36;100.00;101435.94;5039321;28;45968;-74
2023/04/27 03:09:00;;;;;;;;;18.00;15.25;;;;;14.36;100.00;101433.28;5021106;28;45330;-74
2023/04/27 03:11:25;;;;;;;;;20.50;18.50;;;;;14.36;100.00;101440.34;5037562;28;63226;-73
2023/04/27 03:13:51;;;;;;;;;18.50;18.50;;;;;14.33;100.00;101438.59;5025963;28;56331;-74
2023/04/27 03:16:16;;;;;;;;;23.75;18.75;;;;;14.32;100.00;101438.56;5038430;28;53107;-74
2023/04/27 03:18:41;;;;;;;;;23.25;19.50;;;;;14.30;100.00;101438.56;5037694;28;60800;-74
2023/04/27 03:21:11;;;;;;;;;26.00;23.25;;;;;14.29;100.00;101433.25;5020177;28;54658;-74
2023/04/27 03:23:37;;;;;;;;;27.50;19.75;;;;;14.25;100.00;101435.00;5020777;28;45367;-74
2023/04/27 03:26:10;;;;;;;;;25.25;24.00;;;;;14.27;100.00;101442.97;5038744;28;45915;-74
2023/04/27 03:28:35;;;;;;;;;26.75;23.25;;;;;14.26;100.00;101446.50;5018130;28;45360;-74
2023/04/27 03:31:08;;;;;;;;;25.50;23.25;;;;;14.24;100.00;101433.22;5038972;28;45298;-74
2023/04/27 03:33:35;;;;;;;;;30.00;26.00;;;;;14.24;100.00;101435.00;5038735;28;46590;-73
2023/04/27 03:36:01;;;;;;;;;26.50;23.50;;;;;14.25;100.00;101444.72;5033655;28;47929;-74
2023/04/27 03:38:26;;;;;;;;;26.75;23.00;;;;;14.24;100.00;101445.63;5037310;28;45483;-73
2023/04/27 03:40:52;;;;;;;;;26.50;24.50;;;;;14.21;100.00;101440.28;5038135;28;45433;-73
2023/04/27 03:43:18;;;;;;;;;26.00;20.50;;;;;14.20;100.00;101441.16;5018600;28;45706;-74
2023/04/27 03:45:44;;;;;;;;;29.00;21.25;;;;;14.22;100.00;101439.38;5038003;28;45496;-74
2023/04/27 03:48:09;;;;;;;;;24.75;19.25;;;;;14.21;100.00;101437.63;5037394;28;58251;-74
2023/04/27 03:50:35;;;;;;;;;24.50;20.50;;;;;14.18;100.00;101427.00;5038624;28;45427;-74
2023/04/27 03:53:00;;;;;;;;;26.00;23.25;;;;;14.20;100.00;101434.06;5037556;28;60889;-74
2023/04/27 03:55:25;;;;;;;;;23.75;20.75;;;;;14.15;100.00;101428.72;5037689;28;59997;-74
2023/04/27 03:57:51;;;;;;;;;25.25;21.50;;;;;14.16;100.00;101433.16;5037607;28;45326;-74
2023/04/27 04:00:17;;;;;;;;;25.50;20.25;;;;;14.17;100.00;101431.41;5037807;28;45677;-74
2023/04/27 04:02:42;;;;;;;;;24.25;24.25;;;;;14.16;100.00;101429.63;5038469;28;45383;-74
2023/04/27 04:05:08;;;;;;;;;25.00;20.50;;;;;14.16;100.00;101446.44;5019643;28;46109;-73
2023/04/27 04:07:33;;;;;;;;;24.50;21.75;;;;;14.16;100.00;101443.78;5019581;28;64746;-73
2023/04/27 04:09:59;;;;;;;;;23.25;21.25;;;;;14.15;100.00;101441.13;5019949;28;45207;-74
2023/04/27 04:12:24;;;;;;;;;23.50;22.00;;;;;14.14;100.00;101439.34;5040477;28;45634;-73
2023/04/27 04:14:50;;;;;;;;;28.75;23.00;;;;;14.15;100.00;101436.69;5038310;28;46181;-74
2023/04/27 04:17:15;;;;;;;;;27.75;23.75;;;;;14.15;100.00;101436.69;5038047;28;45597;-74
2023/04/27 04:19:41;;;;;;;;;25.75;20.25;;;;;14.12;100.00;101433.16;5037274;28;64212;-74
2023/04/27 04:22:06;;;;;;;;;24.50;21.75;;;;;14.11;100.00;101429.63;5036481;28;60305;-74
2023/04/27 04:24:32;;;;;;;;;29.25;24.25;;;;;14.13;100.00;101437.59;5037483;28;46037;-74
2023/04/27 04:26:57;;;;;;;;;29.75;22.25;;;;;14.12;100.00;101435.81;5037374;28;63096;-74
2023/04/27 04:29:23;;;;;;;;;31.75;26.25;;;;;14.07;100.00;101425.16;5037564;28;45335;-74
2023/04/27 04:31:48;;;;;;;;;19.50;17.00;;;;;14.09;100.00;101446.41;5019735;28;45558;-73
2023/04/27 04:34:14;;;;;;;;;26.50;21.00;;;;;14.05;100.00;101432.22;5019593;28;48280;-74
2023/04/27 04:36:40;;;;;;;;;27.00;23.50;;;;;14.02;100.00;101431.31;5019738;28;45456;-75
2023/04/27 04:39:05;;;;;;;;;21.50;19.75;;;;;14.00;100.00;101433.06;5019429;28;45910;-74
2023/04/27 04:41:31;;;;;;;;;28.75;19.75;;;;;13.95;100.00;101427.72;5037153;28;45491;-74
2023/04/27 04:43:57;;;;;;;;;22.00;20.00;;;;;13.92;100.00;101418.84;5037204;28;46105;-74
2023/04/27 04:46:23;;;;;;;;;22.00;18.25;;;;;13.89;100.00;101425.03;5036896;28;45575;-74
2023/04/27 04:48:49;;;;;;;;;23.75;18.50;;;;;13.80;100.00;101417.03;5037331;28;45455;-74
2023/04/27 04:51:15;;;;;;;;;21.00;20.75;;;;;13.77;100.00;101414.31;5037915;28;45392;-74
2023/04/27 04:53:40;;;;;;;;;21.75;17.25;;;;;13.75;100.00;101411.66;5036686;28;46825;-73
2023/04/27 04:56:13;;;;;;;;;18.00;17.75;;;;;13.69;100.00;101405.41;5037016;28;45329;-74
2023/04/27 04:58:38;;;;;;;;;28.00;23.75;;;;;13.71;100.00;101415.16;5018715;28;45379;-74
2023/04/27 05:01:04;;;;;;;;;25.75;23.00;;;;;13.62;100.00;101421.28;5037322;28;45369;-74
2023/04/27 05:03:30;;;;;;;;;27.50;22.50;;;;;13.67;100.00;101431.94;5015677;28;47590;-74
2023/04/27 05:05:55;;;;;;;;;23.75;21.25;;;;;13.64;100.00;101426.63;5035328;28;45519;-74
2023/04/27 05:08:21;;;;;;;;;26.25;23.75;;;;;13.65;100.00;101428.41;5037852;28;45746;-74
2023/04/27 05:10:52;;;;;;;;;24.75;22.75;;;;;13.60;100.00;101417.75;5035327;28;61920;-74
2023/04/27 05:13:18;;;;;;;;;26.50;23.25;;;;;13.62;100.00;101423.94;5038410;28;46840;-74
2023/04/27 05:15:43;;;;;;;;;27.75;24.00;;;;;13.60;100.00;101431.00;5018236;28;45494;-74
2023/04/27 05:18:08;;;;;;;;;25.25;24.50;;;;;13.59;100.00;101431.91;5035585;28;45801;-73
2023/04/27 05:20:34;;;;;;;;;29.00;19.25;;;;;13.59;100.00;101445.16;5016162;28;58117;-73
2023/04/27 05:23:00;;;;;;;;;28.75;22.25;;;;;13.59;100.00;101439.84;5036094;28;45821;-74
2023/04/27 05:25:28;;;;;;;;;27.00;24.00;;;;;13.58;100.00;101440.72;5018892;28;45510;-73
2023/04/27 05:27:53;;;;;;;;;24.75;21.00;;;;;13.56;100.00;101430.97;5036929;28;45475;-74
2023/04/27 05:30:19;;;;;;;;;26.75;21.50;;;;;13.56;100.00;101434.50;5035858;28;62257;-73
2023/04/27 05:32:44;;;;;;;;;23.75;19.50;;;;;13.57;100.00;101432.75;5016833;28;46505;-73
2023/04/27 05:35:10;;;;;;;;;21.75;19.50;;;;;13.55;100.00;101430.09;5035761;28;45576;-74
2023/04/27 05:37:35;;;;;;;;;21.50;16.75;;;;;13.56;100.00;101426.53;5036111;28;45380;-73
2023/04/27 05:40:01;;;;;;;;;22.00;20.75;;;;;13.58;100.00;101424.81;5036778;28;55173;-74
2023/04/27 05:42:26;;;;;;;;;21.75;19.75;;;;;13.56;100.00;101423.00;5016728;28;46653;-74
2023/04/27 05:44:51;;;;;;;;;23.25;21.50;;;;;13.56;100.00;101423.91;5033312;28;67761;-73
2023/04/27 05:47:17;;;;;;;;;23.00;21.50;;;;;13.56;100.00;101415.06;5034467;28;62904;-73
2023/04/27 05:49:42;;;;;;;;;25.25;21.00;;;;;13.56;100.00;101420.34;5035987;28;56686;-74
2023/04/27 05:52:07;;;;;;;;;19.00;16.25;;;;;13.58;100.00;101418.59;5014884;28;47867;-74
2023/04/27 05:54:33;;;;;;;;;21.50;18.75;;;;;13.57;100.00;101412.41;5033977;28;59087;-74
2023/04/27 05:56:58;;;;;;;;;27.75;18.00;;;;;13.60;100.00;101415.09;5035916;28;45289;-73
2023/04/27 05:59:23;;;;;;;;;21.50;19.25;;;;;13.61;100.00;101418.63;5026553;28;58769;-73
2023/04/27 06:01:49;;;;;;;;;16.00;16.00;;;;;13.63;100.00;101423.09;5035283;28;45344;-73
2023/04/27 06:04:14;;;;;;;;;20.00;19.50;;;;;13.69;100.00;101426.63;5028522;28;45351;-72
2023/04/27 06:06:39;;;;;;;;;20.50;19.25;;;;;13.70;100.00;101431.09;5036049;28;45857;-72
2023/04/27 06:09:05;;;;;;;;;23.25;15.25;;;;;13.72;100.00;101426.66;5034200;28;45471;-72
2023/04/27 06:11:30;;;;;;;;;15.00;15.00;;;;;13.76;100.00;101429.38;5014980;28;47173;-74
2023/04/27 06:13:56;;;;;;;;;15.75;15.00;;;;;13.80;100.00;101420.56;5036542;28;65097;-72
2023/04/27 06:16:21;;;;;;;;;16.00;12.33;;;;;13.88;100.00;101425.91;5029092;28;45408;-73
2023/04/27 06:18:49;;;;;;;;;15.00;13.67;;;;;13.95;100.00;101425.06;4999796;28;45474;-72
2023/04/27 06:21:14;;;;;;;;;21.00;13.67;;;;;13.98;100.00;101419.78;5016963;28;46027;-72
2023/04/27 06:23:39;;;;;;;;;17.50;13.75;;;;;14.05;100.00;101424.25;5025990;28;67097;-73
2023/04/27 06:26:05;;;;;;;;;16.00;15.00;;;;;14.10;100.00;101421.63;5034968;28;52341;-73
2023/04/27 06:28:30;;;;;;;;;14.00;12.00;;;;;14.17;100.00;101420.78;5033909;28;45550;-73
2023/04/27 06:30:56;;;;;;;;;14.00;13.00;;;;;14.27;100.00;101427.03;5034751;28;45553;-72
2023/04/27 06:33:21;;;;;;;;;15.00;13.00;;;;;14.35;100.00;101417.34;5034608;28;45633;-73
2023/04/27 06:35:46;;;;;;;;;19.67;14.67;;;;;14.44;100.00;101422.72;5014610;28;45349;-72
2023/04/27 06:38:12;;;;;;;;;15.33;13.00;;;;;14.53;100.00;101420.09;5033435;28;60443;-73
2023/04/27 06:40:37;;;;;;;;;13.33;13.33;;;;;14.60;100.00;101427.22;5016199;28;69077;-72
2023/04/27 06:43:02;;;;;;;;;16.67;11.67;;;;;14.66;100.00;101437.88;5033274;28;45554;-73
2023/04/27 06:45:28;;;;;;;;;17.33;16.00;;;;;14.62;100.00;101430.78;5012247;28;61163;-72
2023/04/27 06:47:53;;;;;;;;;12.00;12.00;;;;;14.63;100.00;101440.50;5033832;28;60244;-72
2023/04/27 06:50:18;;;;;;;;;12.67;8.00;;;;;14.64;100.00;101442.28;5035069;28;45873;-72
2023/04/27 06:52:44;;;;;;;;;13.00;10.00;;;;;14.65;100.00;101446.75;5034125;28;61920;-73
2023/04/27 06:55:09;;;;;;;;;10.00;7.00;;;;;14.72;100.00;101446.75;5034849;28;45582;-73
2023/04/27 06:57:35;;;;;;;;;15.67;12.00;;;;;14.79;100.00;101437.91;5035377;28;51022;-73
2023/04/27 07:00:00;;;;;;;;;9.67;9.67;;;;;14.88;100.00;101443.28;5017458;28;46138;-74
2023/04/27 07:02:26;;;;;;;;;11.33;11.00;;;;;14.96;100.00;101445.94;5033599;28;45401;-72
2023/04/27 07:04:51;;;;;;;;;16.33;16.00;;;;;15.02;100.00;101436.22;5036019;28;45427;-73
2023/04/27 07:07:17;;;;;;;;;16.00;13.67;;;;;15.06;100.00;101422.03;5034804;28;45452;-72
2023/04/27 07:09:42;;;;;;;;;19.33;14.33;;;;;15.08;100.00;101430.94;5035635;28;45659;-73
2023/04/27 07:12:08;;;;;;;;;15.00;13.00;;;;;15.07;100.00;101423.81;5035147;28;45506;-72
2023/04/27 07:14:33;;;;;;;;;14.67;11.67;;;;;15.10;100.00;101423.81;5035687;28;46054;-73
2023/04/27 07:16:58;;;;;;;;;14.67;14.00;;;;;15.11;100.00;101422.06;5033449;28;45210;-74
2023/04/27 07:19:24;;;;;;;;;12.00;11.00;;;;;15.19;100.00;101417.66;5032174;28;70120;-75
2023/04/27 07:21:49;;;;;;;;;16.00;12.33;;;;;15.24;100.00;101422.97;5032493;28;45483;-72
2023/04/27 07:24:15;;;;;;;;;14.00;11.00;;;;;15.29;100.00;101416.78;5032082;28;45634;-74
2023/04/27 07:26:40;;;;;;;;;14.67;12.33;;;;;15.31;100.00;101412.31;5032454;28;53945;-73
2023/04/27 07:29:05;;;;;;;;;16.33;14.00;;;;;15.34;100.00;101411.44;5012287;28;53784;-72
2023/04/27 07:31:32;;;;;;;;;15.00;12.00;;;;;15.35;100.00;101414.09;5029755;28;46785;-73
2023/04/27 07:33:59;;;;;;;;;12.00;12.00;;;;;15.36;100.00;101425.63;5033799;28;45136;-73
2023/04/27 07:36:26;;;;;;;;;17.00;12.00;;;;;15.40;100.00;101424.75;5016018;28;45500;-73
2023/04/27 07:38:51;;;;;;;;;14.67;11.67;;;;;15.50;100.00;101420.31;4994179;28;46399;-73
2023/04/27 07:41:19;;;;;;;;;13.00;13.00;;;;;15.59;100.00;101413.22;5018846;28;45384;-73
2023/04/27 07:43:44;;;;;;;;;14.67;14.67;;;;;15.70;100.00;101416.78;5014292;28;45623;-72
2023/04/27 07:46:10;;;;;;;;;12.67;12.33;;;;;15.85;100.00;101423.00;4995516;28;45472;-75
2023/04/27 07:48:36;;;;;;;;;13.67;12.00;;;;;15.96;100.00;101426.53;5011037;28;48733;-74
2023/04/27 07:51:01;;;;;;;;;14.33;11.00;;;;;16.02;100.00;101420.31;5017847;28;45501;-74
2023/04/27 07:53:26;;;;;;;;;13.33;12.00;;;;;16.04;100.00;101419.44;5016165;28;46297;-74
2023/04/27 07:55:52;;;;;;;;;14.00;10.33;;;;;16.05;100.00;101423.84;5016457;28;52701;-74
2023/04/27 07:58:18;;;;;;;;;11.67;9.00;;;;;15.99;100.00;101415.88;5017386;28;46591;-73
2023/04/27 08:00:44;;;;;;;;;13.00;11.33;;;;;15.96;100.00;101408.75;4984174;28;46087;-74
2023/04/27 08:03:10;;;;;;;;;12.33;11.00;;;;;15.97;100.00;101417.66;5003356;28;45556;-73
2023/04/27 08:05:35;;;;;;;;;14.33;12.00;;;;;15.96;100.00;101414.09;5018594;28;46456;-75
2023/04/27 08:08:01;;;;;;;;;13.33;13.33;;;;;15.97;100.00;101407.88;4998470;28;46528;-74
2023/04/27 08:10:26;;;;;;;;;12.67;11.00;;;;;16.00;100.00;101416.78;5016477;28;61300;-78
2023/04/27 08:12:52;;;;;;;;;13.67;11.00;;;;;16.03;100.00;101414.06;5014725;28;45584;-75
2023/04/27 08:15:17;;;;;;;;;9.67;9.67;;;;;16.06;100.00;101420.28;5021747;28;52360;-74
2023/04/27 08:17:42;;;;;;;;;9.33;9.00;;;;;16.09;100.00;101424.75;4998521;28;45902;-76
2023/04/27 08:20:12;;;;;;;;;16.00;13.33;;;;;16.11;100.00;101425.63;5014681;28;45226;-77
2023/04/27 08:22:38;;;;;;;;;12.67;11.00;;;;;16.06;100.00;101412.31;4999297;28;45207;-74
2023/04/27 08:25:04;;;;;;;;;12.67;9.67;;;;;16.10;100.00;101414.06;4998807;28;45496;-74
2023/04/27 08:27:30;;;;;;;;;16.33;11.67;;;;;16.09;100.00;101401.66;5016640;28;46520;-73
2023/04/27 08:29:55;;;;;;;;;13.00;12.00;;;;;16.10;100.00;101397.22;4998928;28;45475;-72
2023/04/27 08:32:21;;;;;;;;;12.67;10.33;;;;;16.11;100.00;101385.66;4999030;28;45412;-73
2023/04/27 08:34:46;;;;;;;;;8.00;8.00;;;;;16.16;100.00;101390.06;5015547;28;58432;-73
2023/04/27 08:37:11;;;;;;;;;10.67;9.00;;;;;16.19;100.00;101386.50;5026702;28;61146;-74
2023/04/27 08:39:37;;;;;;;;;8.33;7.33;;;;;16.27;100.00;101389.16;5032804;28;45562;-74
2023/04/27 08:42:12;;;;;;;;;8.67;8.67;;;;;16.32;100.00;101396.25;4998949;28;45551;-74
2023/04/27 08:44:39;;;;;;;;;10.00;10.00;;;;;16.39;100.00;101389.09;5014038;28;45653;-72
2023/04/27 08:47:04;;;;;;;;;10.33;9.00;;;;;16.46;100.00;101398.88;5015872;28;47573;-72
2023/04/27 08:49:30;;;;;;;;;8.00;7.33;;;;;16.56;100.00;101389.03;5035409;28;45968;-73
2023/04/27 08:51:55;;;;;;;;;11.00;11.00;;;;;16.62;100.00;101389.91;5015298;28;64334;-73
2023/04/27 08:54:21;;;;;;;;;13.00;11.00;;;;;16.68;100.00;101387.19;5017967;28;45696;-73
2023/04/27 08:56:46;;;;;;;;;10.00;7.67;;;;;16.75;100.00;101390.75;5017065;28;45723;-73
2023/04/27 08:59:13;;;;;;;;;12.00;9.00;;;;;16.79;100.00;101378.28;5034747;28;61627;-73
2023/04/27 09:01:47;;;;;;;;;10.00;8.67;;;;;16.86;100.00;101386.25;5018900;28;45257;-73
2023/04/27 09:04:12;;;;;;;;;8.00;8.00;;;;;16.89;100.00;101388.03;5034695;28;45200;-73
2023/04/27 09:06:37;;;;;;;;;10.00;8.00;;;;;16.92;100.00;101383.53;5018877;28;45374;-73
2023/04/27 09:09:03;;;;;;;;;8.67;8.00;;;;;16.96;100.00;101376.41;5035900;28;65215;-71
2023/04/27 09:11:28;;;;;;;;;7.00;7.00;;;;;17.02;100.00;101371.03;5018789;28;45514;-73
2023/04/27 09:13:54;;;;;;;;;12.00;9.33;;;;;17.07;100.00;101382.53;5036911;28;47122;-73
2023/04/27 09:16:27;;;;;;;;;13.33;8.67;;;;;17.14;100.00;101380.72;5035795;28;70390;-73
2023/04/27 09:18:53;;;;;;;;;10.00;8.00;;;;;17.22;99.65;101381.56;5004863;28;46228;-73
2023/04/27 09:21:26;;;;;;;;;9.33;6.00;;;;;17.29;99.29;101369.94;5035226;28;45437;-73
2023/04/27 09:23:52;;;;;;;;;10.00;7.00;;;;;17.32;99.16;101367.25;5016000;28;45243;-73
2023/04/27 09:26:22;;;;;;;;;7.33;6.00;;;;;17.40;99.48;101376.06;5036363;28;45483;-73
2023/04/27 09:28:49;;;;;;;;;9.33;9.33;;;;;17.44;99.06;101372.47;5013634;28;45322;-72
2023/04/27 09:31:15;;;;;;;;;11.00;8.00;;;;;17.50;98.88;101385.75;5036446;28;45372;-73
2023/04/27 09:33:40;;;;;;;;;9.33;8.67;;;;;17.53;98.71;101379.53;5019259;28;45436;-72
2023/04/27 09:36:06;;;;;;;;;8.67;8.67;;;;;17.64;99.34;101376.75;5017560;28;68692;-73
2023/04/27 09:38:32;;;;;;;;;8.33;7.67;;;;;17.71;99.56;101375.78;5017748;28;45499;-73
2023/04/27 09:40:58;;;;;;;;;10.00;8.33;;;;;17.75;98.71;101375.78;5016101;28;45523;-73
2023/04/27 09:43:26;;;;;;;;;8.67;6.33;;;;;17.79;98.30;101369.53;5017065;28;45374;-73
2023/04/27 09:45:52;;;;;;;;;8.67;8.00;;;;;17.83;98.52;101364.13;5015143;28;46577;-73
2023/04/27 09:48:20;;;;;;;;;4.00;4.00;;;;;17.85;98.23;101362.34;5015272;28;45431;-73
2023/04/27 09:50:48;;;;;;;;;8.33;7.00;;;;;17.92;98.71;101366.72;5016015;28;45467;-72
2023/04/27 09:53:16;;;;;;;;;5.33;5.33;;;;;18.01;97.78;101369.28;5015576;28;45616;-73
2023/04/27 09:56:25;;;;;;;;;9.33;8.00;;;;;18.08;97.95;101364.75;5015397;28;46619;-73
2023/04/27 09:59:13;;;;;;;;;6.67;6.67;;;;;18.16;97.76;101377.09;5011208;28;45444;-72
2023/04/27 10:01:46;;;;;;;;;8.00;5.00;;;;;18.25;96.18;101381.47;5014160;28;46013;-73
2023/04/27 10:04:30;;;;;;;;;6.00;6.00;;;;;18.29;95.70;101375.19;5013786;28;45535;-74
2023/04/27 10:06:59;;;;;;;;;6.00;6.00;;;;;18.31;94.80;101378.72;5012052;28;45712;-72
2023/04/27 10:09:26;;;;;;;;;4.67;4.00;;;;;18.30;94.46;101364.47;5007286;28;45479;-73
2023/04/27 10:11:53;;;;;;;;;6.00;4.00;;;;;18.32;92.98;101372.47;5014902;28;45411;-72
2023/04/27 10:14:23;;;;;;;;;5.33;4.67;;;;;18.26;92.42;101360.06;5013759;28;45609;-73
2023/04/27 10:16:52;;;;;;;;;5.00;5.00;;;;;18.27;92.50;101351.16;5012190;28;45692;-72
2023/04/27 10:19:19;;;;;;;;;5.33;5.00;;;;;18.27;93.03;101352.94;5008912;28;45583;-73
2023/04/27 10:21:50;;;;;;;;;8.00;5.67;;;;;18.29;93.25;101348.47;5013506;28;45524;-73
2023/04/27 10:24:16;;;;;;;;;6.00;5.33;;;;;18.28;92.55;101338.69;5013465;28;46395;-73
2023/04/27 10:26:45;;;;;;;;;6.00;6.00;;;;;18.30;92.87;101340.41;5013363;28;46560;-74
2023/04/27 10:29:14;;;;;;;;;5.67;4.33;;;;;18.32;93.88;101341.28;5013262;28;45261;-73
2023/04/27 10:31:46;;;;;;;;;6.00;6.00;;;;;18.38;93.32;101348.34;5015583;28;45439;-73
2023/04/27 10:34:16;;;;;;;;;5.00;5.00;;;;;18.42;92.92;101339.34;5012254;28;45437;-73
2023/04/27 10:36:41;;;;;;;;;3.33;3.33;;;;;18.47;91.65;101350.88;5015509;28;46720;-73
2023/04/27 10:39:21;;;;;;;;;9.00;6.33;;;;;18.51;91.87;101341.91;5033318;28;52280;-73
2023/04/27 10:41:55;;;;;;;;;4.00;4.00;;;;;18.56;91.54;101341.88;5034524;28;45463;-74
2023/04/27 10:44:31;;;;;;;;;5.00;3.33;;;;;18.60;91.89;101338.25;5032747;28;56325;-73
2023/04/27 10:46:58;;;;;;;;;6.00;4.00;;;;;18.64;91.93;101339.94;5033694;28;45935;-73
2023/04/27 10:49:29;;;;;;;;;5.00;5.00;;;;;18.68;92.40;101338.16;5017559;28;45483;-74
2023/04/27 10:51:57;;;;;;;;;5.00;3.67;;;;;18.76;93.10;101339.81;5032047;28;45466;-73
2023/04/27 10:54:28;;;;;;;;;5.00;5.00;;;;;18.90;93.16;101344.06;5034996;28;45575;-73
2023/04/27 10:57:00;;;;;;;;;6.00;3.33;;;;;19.04;92.58;101331.38;5015744;28;46571;-72
2023/04/27 10:59:26;;;;;;;;;5.67;5.67;;;;;19.20;92.28;101323.97;5006552;28;45562;-72
2023/04/27 11:01:51;;;;;;;;;3.67;3.67;;;;;19.37;92.89;101321.88;5027473;28;45633;-73
2023/04/27 11:04:17;;;;;;;;;3.67;3.67;;;;;19.57;93.14;101322.41;5036806;28;45491;-73
2023/04/27 11:06:44;;;;;;;;;5.33;2.00;;;;;19.79;92.56;101320.25;5037268;28;46346;-73